Aviation Digital Data Service (ADDS)

Output produced by METARs form (1248 UTC 15 November 2018)
found at http://www.aviationweather.gov/metar/data/
 
MRLB 151100Z 1512/1612 08013KT 9999 FEW040 TX33/1519Z TN22/1612Z 
     TEMPO 1516/1522 09012G24KT
       
MROC 151100Z 1512/1612 10010KT 9999 FEW035 SCT120 TX29/1518Z TN20/1609Z
       
MRLM 151100Z 1512/1612 26004KT 9999 SCT020 BKN100 TX30/1518Z TN22/1612Z 
     BECMG 1514/1516 35006KT 
     TEMPO 1518/1524 5000 RA BKN015
       
MRPV 151100Z 1512/1612 11012KT 9999 FEW035 SCT100 TX27/1518Z TN19/1609Z 
     TEMPO 1520/1523 RA